Terminal Aerodrome Forecast
Issued by NWS

Home | Current Version | Previous Version | Text Only | Print | Product List | Glossary On
Versions: 1 2 3 4 5 6 7 8 9 10 11 12 13 14
861
FTUS45 KPIH 251120
TAFSUN
TAF
KSUN 251120Z 2512/2612 31007KT P6SM SCT120
     FM251800 14009KT P6SM FEW030 SCT100
     FM252100 21010G20KT P6SM FEW040 SCT100
     FM260300 32007KT P6SM BKN120
      AMD LTD TO CLD VIS AND WIND TIL 251300=

USA.gov is the U.S. government's official web portal to all federal, state and local government web resources and services.